Airfield :
LOGIN :

Register | Disclaimer

   EN    FR    IT 

 










Legend :    VFR   Marginal VFR   IFR   Intensive IFR   Very Intensive IFR
Visi :
Ceiling :
>= 8 km
>= 3000ft
5 to 8 km
1000 to 3000 ft
1500m to 5 km
500 to 1000 ft
800 to 1500m
200 to 500 ft
< 800m
< 200 ft
Symbols :   Thunderstorms  Fog  Heavy snow  Heavy precipitations  Wind > 20 kt
SIGMETs :     Misc.  Thunderstorms  Icing  Turbulence  Mountain Waves  Volcanic Ashes






- Airport Elevation : 141 ft
- IATA code : SKS


EKSP - Srydstrup Vojens

CURRENT METAR :
  • 271920Z 12006KT 9999 -RA FEW030 BKN042 BKN055 05/04 Q1017

EXPIRED METARs :
  • 271850Z 15005KT 110V190 9999 -RA FEW030 BKN040 05/04 Q1017
  • 271820Z 12007KT 9999 -RA FEW028 BKN035 BKN060 05/03 Q1017
  • 271750Z 13008KT 9999 -RA SCT040 BKN060 05/03 Q1017
  • 271720Z 14007KT CAVOK 05/03 Q1018
  • 271650Z 13007KT CAVOK 04/03 Q1018
  • 271620Z 13007KT CAVOK 04/03 Q1019 RMK OVC070

TAF TAF EKSP
Valid from the 27 at 18:00 until the 28 at 18:00 UTC


271705Z 2718/2818 14010KT 9999 BKN080
BECMG 2718/2720 7000 -RA
TEMPO 2720/2809 15012G22KT 4000 RA BR BKN012
TEMPO 2809/2818 14012G22KT 3000 -RADZ BKN006



MET'MAP, your aeronautical weather chart ! - Copyright ORBIFLY December 2007 - Disclaimer

ORBIFLY MET'MAP TEAM :

Programming & Development : Alexandra Zaïnal
Original concept : Baudouin d'Aumeries
Technical & hardware support : Manuel Goepfert
Assistance : Marc-Olivier Méhu




SOURCES & CREDITS :

   NOAA